Terminal Aerodrome Forecast
Issued by NWS

Current Version | Previous Version | Text Only | Print | Product List | Glossary On
Versions: 1 2 3 4 5 6 7 8 9 10 11 12 13 14 15 16 17 18
000
FTUS45 KLKN 270836 AAA
TAFELY
TAF AMD
KELY 270836Z 2709/2806 29006KT P6SM -SHRA SCT015 BKN025
     FM271100 29006KT P6SM BKN070
     FM271600 32016G26KT P6SM BKN100
     FM280300 33007KT P6SM SCT200=

USA.gov is the U.S. government's official web portal to all federal, state and local government web resources and services.